createdAt,value
2023-04-03T00:00:39.353Z,87.12
2023-04-03T00:03:17.993Z,90.66
2023-04-03T00:05:45.721Z,90.05
2023-04-03T00:08:12.694Z,89.61
2023-04-03T00:10:39.937Z,89.50
2023-04-03T00:13:07.281Z,89.31
2023-04-03T00:15:34.291Z,89.08
2023-04-03T00:18:01.804Z,88.84
2023-04-03T00:20:28.958Z,88.45
2023-04-03T00:22:55.801Z,87.34
2023-04-03T00:25:22.658Z,87.68
2023-04-03T00:27:49.448Z,87.67
2023-04-03T00:30:17.863Z,87.72
2023-04-03T00:32:44.950Z,87.75
2023-04-03T00:35:12.008Z,87.83
2023-04-03T00:37:39.104Z,87.80
2023-04-03T00:40:06.659Z,87.59
2023-04-03T00:42:33.608Z,87.57
2023-04-03T00:45:01.378Z,87.61
2023-04-03T00:47:28.665Z,87.79
2023-04-03T00:49:56.006Z,87.46
2023-04-03T00:52:25.202Z,87.36
2023-04-03T00:54:55.115Z,86.71
2023-04-03T00:57:23.450Z,87.04
2023-04-03T00:59:52.598Z,86.74
2023-04-03T01:02:19.777Z,86.36
2023-04-03T01:04:47.731Z,85.82
2023-04-03T01:07:20.105Z,84.31
2023-04-03T01:09:48.348Z,82.32
2023-04-03T01:12:16.790Z,83.87
2023-04-03T01:14:45.025Z,83.77
2023-04-03T01:17:41.838Z,82.79
2023-04-03T01:20:12.319Z,82.06
2023-04-03T01:22:48.065Z,82.84
2023-04-03T01:25:15.016Z,83.15
2023-04-03T01:27:42.070Z,83.00
2023-04-03T01:30:09.431Z,82.45
2023-04-03T01:32:36.718Z,82.98
2023-04-03T01:35:03.947Z,83.01
2023-04-03T01:37:30.999Z,83.31
2023-04-03T01:39:58.156Z,83.54
2023-04-03T01:42:25.515Z,83.86
2023-04-03T01:44:52.567Z,83.69
2023-04-03T01:47:20.095Z,83.67
2023-04-03T01:49:46.961Z,83.69
2023-04-03T01:52:13.928Z,83.56
2023-04-03T01:54:40.669Z,83.46
2023-04-03T01:57:07.597Z,83.65
2023-04-03T01:59:34.795Z,83.73
2023-04-03T02:02:02.066Z,83.48
2023-04-03T02:04:29.273Z,83.51
2023-04-03T02:06:56.191Z,83.46
2023-04-03T02:09:23.078Z,83.79
2023-04-03T02:11:50.284Z,83.31
2023-04-03T02:14:17.217Z,83.24
2023-04-03T02:16:45.012Z,82.85
2023-04-03T02:19:11.831Z,82.91
2023-04-03T02:21:38.767Z,83.30
2023-04-03T02:24:05.881Z,83.37
2023-04-03T02:26:32.640Z,83.35
2023-04-03T02:28:59.393Z,82.77
2023-04-03T02:31:26.223Z,83.75
2023-04-03T02:33:53.321Z,83.71
2023-04-03T02:36:20.445Z,83.33
2023-04-03T02:38:51.373Z,82.79
2023-04-03T02:41:18.329Z,81.76
2023-04-03T02:43:45.109Z,81.15
2023-04-03T02:46:12.022Z,80.29
2023-04-03T02:48:38.922Z,80.13
2023-04-03T02:51:06.332Z,80.46
2023-04-03T02:53:33.325Z,81.81
2023-04-03T02:56:04.531Z,81.68
2023-04-03T02:58:31.367Z,81.44
2023-04-03T03:00:58.632Z,81.65
2023-04-03T03:03:25.414Z,82.27
2023-04-03T03:06:01.247Z,82.51
2023-04-03T03:08:28.121Z,82.76
2023-04-03T03:10:55.196Z,83.13
2023-04-03T03:13:22.081Z,83.11
2023-04-03T03:15:48.848Z,83.30
2023-04-03T03:18:15.809Z,83.44
2023-04-03T03:20:42.533Z,83.41
2023-04-03T03:23:09.462Z,83.40
2023-04-03T03:25:40.574Z,82.79
2023-04-03T03:28:08.303Z,82.96
2023-04-03T03:30:35.738Z,83.10
2023-04-03T03:33:02.861Z,83.19
2023-04-03T03:35:30.248Z,83.29
2023-04-03T03:37:57.432Z,83.48
2023-04-03T03:40:24.329Z,83.46
2023-04-03T03:42:51.224Z,83.43
2023-04-03T03:45:18.150Z,83.65
2023-04-03T03:47:46.054Z,83.76
2023-04-03T03:50:13.376Z,82.46
2023-04-03T03:52:40.672Z,82.49
2023-04-03T03:55:07.764Z,82.67
2023-04-03T03:57:35.839Z,82.74
2023-04-03T04:00:04.362Z,82.77
2023-04-03T04:02:42.653Z,82.79
2023-04-03T04:05:11.190Z,83.04
2023-04-03T04:07:38.745Z,83.25
2023-04-03T04:10:06.939Z,83.49
2023-04-03T04:12:36.092Z,83.58
2023-04-03T04:15:03.414Z,83.66
2023-04-03T04:17:30.391Z,83.78
2023-04-03T04:19:57.914Z,83.70
2023-04-03T04:22:24.846Z,83.67
2023-04-03T04:24:51.912Z,82.98
2023-04-03T04:27:18.630Z,83.03
2023-04-03T04:29:45.763Z,83.10
2023-04-03T04:32:12.937Z,83.43
2023-04-03T04:34:39.853Z,83.04
2023-04-03T04:37:07.035Z,82.90
2023-04-03T04:39:34.231Z,82.98
2023-04-03T04:42:01.454Z,83.24
2023-04-03T04:44:29.129Z,83.06
2023-04-03T04:46:56.045Z,83.15
2023-04-03T04:49:23.010Z,82.91
2023-04-03T04:51:52.253Z,83.14
2023-04-03T04:54:24.131Z,83.12
2023-04-03T04:56:52.034Z,83.30
2023-04-03T04:59:20.678Z,83.01
2023-04-03T05:01:49.293Z,82.83
2023-04-03T05:04:17.100Z,82.64
2023-04-03T05:06:45.370Z,83.21
2023-04-03T05:09:15.527Z,83.32
2023-04-03T05:11:43.455Z,83.20
2023-04-03T05:14:10.657Z,83.13
2023-04-03T05:16:37.684Z,82.01
2023-04-03T05:19:04.894Z,81.62
2023-04-03T05:21:32.719Z,81.32
2023-04-03T05:24:03.018Z,80.15
2023-04-03T05:26:31.882Z,79.82
2023-04-03T05:28:59.157Z,79.36
2023-04-03T05:31:26.569Z,79.24
2023-04-03T05:33:53.568Z,79.40
2023-04-03T05:36:21.492Z,80.14
2023-04-03T05:38:50.770Z,80.68
2023-04-03T05:41:18.122Z,80.65
2023-04-03T05:43:45.485Z,80.82
2023-04-03T05:46:13.769Z,80.47
2023-04-03T05:48:41.342Z,80.48
2023-04-03T05:51:18.327Z,80.36
2023-04-03T05:53:47.152Z,80.13
2023-04-03T05:56:14.395Z,80.14
2023-04-03T05:58:41.430Z,79.83
2023-04-03T06:01:08.422Z,79.59
2023-04-03T06:03:37.151Z,79.27
2023-04-03T06:06:05.945Z,78.18
2023-04-03T06:08:33.420Z,77.21
2023-04-03T06:11:00.360Z,77.03
2023-04-03T06:13:28.004Z,77.00
2023-04-03T06:15:54.983Z,77.02
2023-04-03T06:18:23.265Z,76.91
2023-04-03T06:20:50.861Z,76.98
2023-04-03T06:23:18.091Z,76.70
2023-04-03T06:25:45.145Z,76.65
2023-04-03T06:28:12.154Z,76.46
2023-04-03T06:30:39.386Z,76.32
2023-04-03T06:33:06.532Z,76.36
2023-04-03T06:35:35.540Z,76.19
2023-04-03T06:38:04.936Z,76.81
2023-04-03T06:40:31.958Z,76.68
2023-04-03T06:42:58.750Z,76.65
2023-04-03T06:45:26.245Z,76.00
2023-04-03T06:47:53.048Z,76.34
2023-04-03T06:50:20.201Z,76.39
2023-04-03T06:52:47.222Z,76.02
2023-04-03T06:55:14.176Z,76.00
2023-04-03T06:57:41.144Z,76.19
2023-04-03T07:00:09.149Z,75.77
2023-04-03T07:02:36.695Z,75.35
2023-04-03T07:05:04.498Z,75.83
2023-04-03T07:07:31.548Z,76.06
2023-04-03T07:09:58.537Z,75.67
2023-04-03T07:12:26.005Z,75.25
2023-04-03T07:14:52.745Z,75.22
2023-04-03T07:17:20.033Z,75.56
2023-04-03T07:19:47.190Z,76.42
2023-04-03T07:22:14.443Z,77.57
2023-04-03T07:24:41.614Z,77.07
2023-04-03T07:27:08.950Z,77.01
2023-04-03T07:29:36.092Z,78.27
2023-04-03T07:32:04.192Z,79.09
2023-04-03T07:34:31.237Z,78.54
2023-04-03T07:36:58.338Z,79.05
2023-04-03T07:39:26.180Z,79.79
2023-04-03T07:41:53.022Z,80.21
2023-04-03T07:44:19.865Z,79.49
2023-04-03T07:46:47.205Z,79.62
2023-04-03T07:49:13.979Z,80.30
2023-04-03T07:51:41.316Z,79.74
2023-04-03T07:54:08.298Z,78.40
2023-04-03T07:56:35.526Z,78.90
2023-04-03T07:59:02.428Z,78.20
2023-04-03T08:01:29.403Z,78.71
2023-04-03T08:03:56.332Z,79.13
2023-04-03T08:06:33.002Z,78.14
2023-04-03T08:09:05.236Z,78.85
2023-04-03T08:11:32.168Z,78.54
2023-04-03T08:13:59.131Z,78.09
2023-04-03T08:16:27.465Z,79.20
2023-04-03T08:18:55.371Z,79.41
2023-04-03T08:21:22.118Z,78.50
2023-04-03T08:23:50.809Z,78.00
2023-04-03T08:26:19.012Z,78.13
2023-04-03T08:28:45.873Z,78.91
2023-04-03T08:31:15.271Z,78.61
2023-04-03T08:33:42.239Z,78.31
2023-04-03T08:36:16.904Z,79.21
2023-04-03T08:38:43.850Z,77.90
2023-04-03T08:41:16.634Z,77.91
2023-04-03T08:44:02.449Z,78.23
2023-04-03T08:46:52.382Z,79.30
2023-04-03T08:49:26.808Z,79.24
2023-04-03T08:51:53.788Z,77.93
2023-04-03T08:54:41.825Z,78.30
2023-04-03T08:57:10.967Z,78.81
2023-04-03T08:59:38.909Z,78.82
2023-04-03T09:02:17.100Z,78.54
2023-04-03T09:04:43.882Z,78.58
2023-04-03T09:07:16.795Z,78.31
2023-04-03T09:09:43.970Z,78.73
2023-04-03T09:12:10.741Z,78.33
2023-04-03T09:14:46.755Z,78.13
2023-04-03T09:17:32.562Z,77.98
2023-04-03T09:20:09.148Z,77.75
2023-04-03T09:22:45.708Z,77.91
2023-04-03T09:25:25.460Z,78.41
2023-04-03T09:27:53.026Z,78.58
2023-04-03T09:30:22.019Z,78.81
2023-04-03T09:32:50.056Z,78.75
2023-04-03T09:35:47.155Z,78.89
2023-04-03T09:38:22.481Z,78.72
2023-04-03T09:40:51.678Z,78.06
2023-04-03T09:43:23.681Z,78.10
2023-04-03T09:45:52.438Z,78.01
2023-04-03T09:48:20.701Z,78.39
2023-04-03T09:50:50.808Z,78.10
2023-04-03T09:53:28.848Z,76.94
2023-04-03T09:55:55.908Z,74.17
2023-04-03T09:58:29.589Z,74.49
2023-04-03T10:01:03.756Z,74.93
2023-04-03T10:03:35.278Z,75.26
2023-04-03T10:06:03.381Z,73.82
2023-04-03T10:08:34.557Z,73.36
2023-04-03T10:11:16.422Z,74.05
2023-04-03T10:13:56.544Z,74.51
2023-04-03T10:16:44.089Z,74.56
2023-04-03T10:19:14.212Z,75.02
2023-04-03T10:21:57.148Z,74.51
2023-04-03T10:24:42.793Z,74.13
2023-04-03T10:27:12.688Z,74.39
2023-04-03T10:29:45.601Z,74.00
2023-04-03T10:32:13.309Z,74.17
2023-04-03T10:34:43.508Z,74.61
2023-04-03T10:37:41.044Z,74.72
2023-04-03T10:40:26.416Z,74.91
2023-04-03T10:43:03.028Z,74.56
2023-04-03T10:45:46.684Z,74.70
2023-04-03T10:48:13.419Z,73.76
2023-04-03T10:50:40.698Z,73.32
2023-04-03T10:53:29.113Z,72.16
2023-04-03T10:56:07.878Z,71.71
2023-04-03T10:58:41.066Z,70.20
2023-04-03T11:01:10.684Z,71.85
2023-04-03T11:03:41.870Z,72.16
2023-04-03T11:06:13.172Z,70.98
2023-04-03T11:08:40.158Z,71.92
2023-04-03T11:11:10.091Z,70.27
2023-04-03T11:14:03.025Z,70.74
2023-04-03T11:16:37.861Z,71.08
2023-04-03T11:19:23.944Z,70.79
2023-04-03T11:22:29.379Z,70.90
2023-04-03T11:25:05.696Z,70.88
2023-04-03T11:27:44.308Z,70.51
2023-04-03T11:30:18.971Z,71.19
2023-04-03T11:33:10.784Z,70.92
2023-04-03T11:35:38.707Z,70.90
2023-04-03T11:38:06.960Z,70.65
2023-04-03T11:40:35.058Z,70.29
2023-04-03T11:43:06.791Z,70.08
2023-04-03T11:45:37.472Z,71.26
2023-04-03T11:48:24.881Z,70.48
2023-04-03T11:50:52.412Z,70.11
2023-04-03T11:53:31.355Z,71.05
2023-04-03T11:55:58.117Z,71.52
2023-04-03T11:58:24.863Z,70.43
2023-04-03T12:00:53.703Z,71.29
2023-04-03T12:03:23.543Z,71.04
2023-04-03T12:06:19.634Z,71.35
2023-04-03T12:08:47.681Z,71.93
2023-04-03T12:11:16.994Z,71.84
2023-04-03T12:13:53.238Z,69.22
2023-04-03T12:16:25.329Z,70.83
2023-04-03T12:18:54.808Z,71.73
2023-04-03T12:21:30.665Z,70.81
2023-04-03T12:24:03.564Z,70.16
2023-04-03T12:26:51.263Z,70.71
2023-04-03T12:29:24.276Z,71.28
2023-04-03T12:31:57.198Z,70.90
2023-04-03T12:34:42.655Z,70.63
2023-04-03T12:37:29.857Z,69.73
2023-04-03T12:39:56.818Z,71.27
2023-04-03T12:42:38.898Z,71.62
2023-04-03T12:45:22.130Z,70.98
2023-04-03T12:47:50.630Z,71.12
2023-04-03T12:50:33.233Z,70.80
2023-04-03T12:53:02.316Z,71.37
2023-04-03T12:55:29.166Z,71.04
2023-04-03T12:57:56.217Z,71.54
2023-04-03T13:00:30.977Z,71.22
2023-04-03T13:02:58.122Z,71.81
2023-04-03T13:05:25.367Z,71.37
2023-04-03T13:08:03.670Z,72.17
2023-04-03T13:10:30.725Z,71.73
2023-04-03T13:13:00.231Z,71.87
2023-04-03T13:15:27.084Z,71.72
2023-04-03T13:17:54.809Z,71.59
2023-04-03T13:20:26.930Z,71.71
2023-04-03T13:23:00.034Z,71.94
2023-04-03T13:25:28.497Z,72.53
2023-04-03T13:28:06.597Z,73.22
2023-04-03T13:30:41.685Z,74.07
2023-04-03T13:33:28.239Z,72.53
2023-04-03T13:36:01.287Z,71.98
2023-04-03T13:38:31.965Z,71.92
2023-04-03T13:41:03.744Z,71.89
2023-04-03T13:43:33.128Z,71.49
2023-04-03T13:46:07.230Z,71.44
2023-04-03T13:48:42.583Z,71.41
2023-04-03T13:51:09.434Z,71.79
2023-04-03T13:53:44.031Z,71.23
2023-04-03T13:56:18.797Z,71.03
2023-04-03T13:58:56.591Z,70.95
2023-04-03T14:01:24.423Z,70.74
2023-04-03T14:03:59.521Z,71.23
2023-04-03T14:06:26.645Z,70.56
2023-04-03T14:08:53.905Z,70.76
2023-04-03T14:11:30.785Z,70.73
2023-04-03T14:14:02.648Z,70.21
2023-04-03T14:16:31.384Z,70.14
2023-04-03T14:18:58.698Z,70.38
2023-04-03T14:21:26.569Z,70.40
2023-04-03T14:23:53.517Z,70.19
2023-04-03T14:26:22.211Z,71.03
2023-04-03T14:28:51.110Z,71.45
2023-04-03T14:31:19.084Z,71.66
2023-04-03T14:33:46.565Z,71.96
2023-04-03T14:36:25.718Z,71.93
2023-04-03T14:38:53.041Z,71.92
2023-04-03T14:41:21.448Z,72.07
2023-04-03T14:43:49.193Z,72.20
2023-04-03T14:46:17.834Z,71.62
2023-04-03T14:48:45.546Z,71.33
2023-04-03T14:51:13.347Z,72.14
2023-04-03T14:53:41.387Z,72.95
2023-04-03T14:56:26.249Z,72.67
2023-04-03T14:59:01.815Z,72.19
2023-04-03T15:01:30.542Z,71.79
2023-04-03T15:03:57.842Z,71.84
2023-04-03T15:06:25.924Z,71.27
2023-04-03T15:08:52.784Z,71.11
2023-04-03T15:11:20.646Z,71.06
2023-04-03T15:13:47.899Z,70.97
2023-04-03T15:16:19.291Z,70.65
2023-04-03T15:18:47.020Z,70.27
2023-04-03T15:21:14.080Z,69.24
2023-04-03T15:23:41.243Z,69.47
2023-04-03T15:26:08.395Z,69.99
2023-04-03T15:28:40.261Z,69.75
2023-04-03T15:31:07.717Z,69.55
2023-04-03T15:33:35.380Z,70.26
2023-04-03T15:36:07.367Z,70.17
2023-04-03T15:38:39.161Z,69.70
2023-04-03T15:41:06.579Z,69.81
2023-04-03T15:43:34.445Z,69.89
2023-04-03T15:46:02.035Z,69.79
2023-04-03T15:48:29.363Z,69.74
2023-04-03T15:50:57.672Z,69.39
2023-04-03T15:53:25.518Z,69.09
2023-04-03T15:55:52.572Z,69.42
2023-04-03T15:58:19.449Z,69.44
2023-04-03T16:00:46.479Z,69.66
2023-04-03T16:03:16.895Z,69.85
2023-04-03T16:05:44.466Z,70.23
2023-04-03T16:08:12.182Z,70.49
2023-04-03T16:10:40.226Z,70.40
2023-04-03T16:13:07.471Z,69.31
2023-04-03T16:15:35.781Z,68.83
2023-04-03T16:18:03.694Z,67.02
2023-04-03T16:20:31.194Z,68.08
2023-04-03T16:23:00.191Z,68.22
2023-04-03T16:25:27.954Z,68.26
2023-04-03T16:27:55.010Z,68.26
2023-04-03T16:30:22.201Z,67.39
2023-04-03T16:32:49.586Z,67.23
2023-04-03T16:35:16.674Z,66.75
2023-04-03T16:37:43.629Z,64.98
2023-04-03T16:40:12.322Z,65.97
2023-04-03T16:42:39.508Z,67.48
2023-04-03T16:45:09.807Z,68.40
2023-04-03T16:47:36.887Z,68.74
2023-04-03T16:50:04.331Z,69.03
2023-04-03T16:52:31.375Z,69.42
2023-04-03T16:54:59.458Z,69.78
2023-04-03T16:57:26.917Z,69.75
2023-04-03T16:59:54.289Z,69.67
2023-04-03T17:02:22.161Z,69.95
2023-04-03T17:04:50.795Z,70.05
2023-04-03T17:07:19.941Z,70.13
2023-04-03T17:09:47.296Z,70.19
2023-04-03T17:12:14.457Z,70.32
2023-04-03T17:14:41.406Z,69.91
2023-04-03T17:17:08.869Z,69.92
2023-04-03T17:19:37.149Z,69.76
2023-04-03T17:22:04.507Z,69.98
2023-04-03T17:24:31.558Z,69.83
2023-04-03T17:26:58.509Z,69.64
2023-04-03T17:29:25.577Z,69.65
2023-04-03T17:31:52.635Z,69.40
2023-04-03T17:34:19.670Z,69.52
2023-04-03T17:36:46.747Z,69.30
2023-04-03T17:39:14.183Z,69.51
2023-04-03T17:41:41.339Z,69.57
2023-04-03T17:44:08.210Z,69.42
2023-04-03T17:46:35.530Z,69.24
2023-04-03T17:49:04.138Z,68.52
2023-04-03T17:51:33.752Z,68.93
2023-04-03T17:54:00.905Z,69.16
2023-04-03T17:56:27.970Z,69.10
2023-04-03T17:58:56.176Z,68.90
2023-04-03T18:01:28.268Z,69.07
2023-04-03T18:03:56.346Z,69.15
2023-04-03T18:06:28.254Z,69.35
2023-04-03T18:08:58.473Z,69.28
2023-04-03T18:11:27.691Z,69.72
2023-04-03T18:13:57.216Z,70.43
2023-04-03T18:16:24.259Z,70.65
2023-04-03T18:19:06.583Z,70.60
2023-04-03T18:21:39.541Z,68.98
2023-04-03T18:24:10.198Z,67.63
2023-04-03T18:26:37.228Z,67.25
2023-04-03T18:29:06.832Z,68.10
2023-04-03T18:31:34.854Z,67.95
2023-04-03T18:34:01.869Z,67.41
2023-04-03T18:36:28.917Z,67.03
2023-04-03T18:38:56.066Z,67.45
2023-04-03T18:41:24.448Z,67.38
2023-04-03T18:43:51.397Z,67.32
2023-04-03T18:46:19.184Z,67.41
2023-04-03T18:48:47.140Z,66.88
2023-04-03T18:51:14.510Z,66.90
2023-04-03T18:53:41.578Z,66.96
2023-04-03T18:56:08.608Z,66.71
2023-04-03T18:58:35.864Z,66.39
2023-04-03T19:01:03.253Z,66.47
2023-04-03T19:03:31.296Z,66.43
2023-04-03T19:05:58.458Z,66.43
2023-04-03T19:08:25.333Z,66.26
2023-04-03T19:10:52.260Z,66.27
2023-04-03T19:13:19.312Z,66.06
2023-04-03T19:15:47.490Z,66.36
2023-04-03T19:18:14.541Z,65.83
2023-04-03T19:20:41.496Z,65.77
2023-04-03T19:23:08.718Z,65.49
2023-04-03T19:25:36.120Z,65.88
2023-04-03T19:28:03.272Z,66.14
2023-04-03T19:30:31.342Z,65.89
2023-04-03T19:32:58.375Z,65.89
2023-04-03T19:35:25.968Z,65.99
2023-04-03T19:37:52.927Z,65.90
2023-04-03T19:40:19.968Z,65.58
2023-04-03T19:42:47.132Z,65.48
2023-04-03T19:45:16.115Z,65.54
2023-04-03T19:47:43.311Z,65.81
2023-04-03T19:50:10.736Z,65.77
2023-04-03T19:52:37.690Z,65.71
2023-04-03T19:55:05.766Z,65.74
2023-04-03T19:57:32.726Z,65.62
2023-04-03T20:00:32.723Z,65.71
2023-04-03T20:02:59.971Z,65.64
2023-04-03T20:05:27.135Z,65.73
2023-04-03T20:07:55.420Z,65.57
2023-04-03T20:10:22.363Z,65.70
2023-04-03T20:12:49.926Z,66.01
2023-04-03T20:15:17.293Z,65.80
2023-04-03T20:17:44.482Z,65.87
2023-04-03T20:20:12.217Z,65.66
2023-04-03T20:22:39.264Z,65.41
2023-04-03T20:25:07.389Z,65.86
2023-04-03T20:27:34.641Z,66.24
2023-04-03T20:30:05.779Z,66.33
2023-04-03T20:32:33.245Z,66.27
2023-04-03T20:35:04.257Z,66.54
2023-04-03T20:37:32.130Z,66.62
2023-04-03T20:40:00.011Z,66.69
2023-04-03T20:42:27.259Z,66.73
2023-04-03T20:44:56.762Z,66.55
2023-04-03T20:47:24.016Z,66.86
2023-04-03T20:49:53.124Z,66.75
2023-04-03T20:52:20.381Z,66.57
2023-04-03T20:54:47.644Z,66.70
2023-04-03T20:57:15.000Z,66.61
2023-04-03T20:59:43.144Z,66.57
2023-04-03T21:02:11.148Z,66.59
2023-04-03T21:04:41.690Z,66.83
2023-04-03T21:07:27.566Z,66.78
2023-04-03T21:10:13.859Z,67.18
2023-04-03T21:12:59.941Z,67.52
2023-04-03T21:15:45.516Z,67.37
2023-04-03T21:18:12.673Z,67.09
2023-04-03T21:20:39.912Z,67.18
2023-04-03T21:23:06.989Z,67.79
2023-04-03T21:25:34.150Z,67.67
2023-04-03T21:28:02.015Z,67.25
2023-04-03T21:30:29.171Z,67.19
2023-04-03T21:32:56.527Z,67.19
2023-04-03T21:35:23.597Z,67.34
2023-04-03T21:37:50.638Z,67.18
2023-04-03T21:40:18.315Z,67.30
2023-04-03T21:42:45.462Z,67.41
2023-04-03T21:45:15.592Z,67.20
2023-04-03T21:47:43.316Z,67.27
2023-04-03T21:50:11.025Z,67.18
2023-04-03T21:52:37.878Z,67.35
2023-04-03T21:55:05.024Z,67.57
2023-04-03T21:57:31.873Z,67.70
2023-04-03T21:59:58.773Z,67.88
2023-04-03T22:02:31.029Z,67.98
2023-04-03T22:04:57.996Z,67.94
2023-04-03T22:07:25.201Z,67.64
2023-04-03T22:09:52.046Z,68.07
2023-04-03T22:12:19.000Z,68.28
2023-04-03T22:14:45.956Z,68.28
2023-04-03T22:17:13.310Z,68.37
2023-04-03T22:19:40.274Z,68.44
2023-04-03T22:22:08.344Z,68.57
2023-04-03T22:24:35.305Z,68.39
2023-04-03T22:27:02.344Z,68.40
2023-04-03T22:29:29.290Z,68.32
2023-04-03T22:31:56.468Z,68.44
2023-04-03T22:34:24.110Z,68.60
2023-04-03T22:36:51.054Z,68.69
2023-04-03T22:39:18.831Z,68.62
2023-04-03T22:41:45.899Z,68.77
2023-04-03T22:44:13.141Z,68.44
2023-04-03T22:46:40.828Z,68.21
2023-04-03T22:49:07.753Z,68.53
2023-04-03T22:51:34.819Z,68.59
2023-04-03T22:54:01.869Z,68.61
2023-04-03T22:56:28.921Z,68.80
2023-04-03T22:59:24.447Z,68.66
2023-04-03T23:01:51.780Z,68.93
2023-04-03T23:04:18.831Z,68.93
2023-04-03T23:06:45.695Z,69.07
2023-04-03T23:09:12.838Z,68.95
2023-04-03T23:11:39.793Z,68.76
2023-04-03T23:14:06.841Z,68.39
2023-04-03T23:16:33.818Z,68.58
2023-04-03T23:19:00.949Z,68.42
2023-04-03T23:21:28.001Z,68.02
2023-04-03T23:23:55.161Z,68.32
2023-04-03T23:26:22.114Z,69.09
2023-04-03T23:28:49.053Z,68.73
2023-04-03T23:31:16.112Z,69.10
2023-04-03T23:33:44.045Z,69.57
2023-04-03T23:36:12.726Z,70.22
2023-04-03T23:38:39.626Z,69.33
2023-04-03T23:41:06.694Z,69.53
2023-04-03T23:43:34.146Z,70.86
2023-04-03T23:46:01.554Z,72.03
2023-04-03T23:48:28.565Z,72.47
2023-04-03T23:50:55.814Z,72.08
2023-04-03T23:53:22.903Z,70.63
2023-04-03T23:55:50.123Z,70.94
2023-04-03T23:58:17.070Z,71.92
